Terminal Aerodrome Forecast
Issued by NWS Sioux Falls, SD

Home | Current Version | Previous Version | Text Only | Print | Product List | Glossary Off
Versions: 1 2 3 4 5 6 7 8 9 10 11 12

000
FTUS43 KFSD 091724
TAFSUX
TAF
KSUX 091724Z 0918/1018 VRB04KT P6SM BKN070
     FM092200 13003KT P6SM OVC050
     FM101300 12008KT 3SM -SN OVC025
     FM101500 12010KT 1 1/2SM -SN OVC015=

USA.gov is the U.S. government's official web portal to all federal, state and local government web resources and services.